sensor_id;sensor_type;location;lat;lon;timestamp;P1;durP1;ratioP1;P2;durP2;ratioP2
61413;SDS011;47279;52.426;10.488;2023-01-01T00:01:29;2.17;;;1.92;;
61413;SDS011;47279;52.426;10.488;2023-01-01T00:03:56;3.20;;;2.17;;
61413;SDS011;47279;52.426;10.488;2023-01-01T00:06:22;2.72;;;2.10;;
61413;SDS011;47279;52.426;10.488;2023-01-01T00:08:48;3.22;;;2.47;;
61413;SDS011;47279;52.426;10.488;2023-01-01T00:11:34;2.60;;;2.40;;
61413;SDS011;47279;52.426;10.488;2023-01-01T00:14:00;3.28;;;2.65;;
61413;SDS011;47279;52.426;10.488;2023-01-01T00:16:26;2.80;;;1.98;;
61413;SDS011;47279;52.426;10.488;2023-01-01T00:18:52;2.50;;;2.20;;
61413;SDS011;47279;52.426;10.488;2023-01-01T00:21:18;2.55;;;2.35;;
61413;SDS011;47279;52.426;10.488;2023-01-01T00:23:44;2.63;;;2.40;;
61413;SDS011;47279;52.426;10.488;2023-01-01T00:26:10;3.13;;;2.45;;
61413;SDS011;47279;52.426;10.488;2023-01-01T00:28:37;3.13;;;2.72;;
61413;SDS011;47279;52.426;10.488;2023-01-01T00:31:09;3.70;;;2.38;;
61413;SDS011;47279;52.426;10.488;2023-01-01T00:33:35;2.70;;;2.33;;
61413;SDS011;47279;52.426;10.488;2023-01-01T00:36:12;3.05;;;2.60;;
61413;SDS011;47279;52.426;10.488;2023-01-01T00:38:38;3.42;;;2.40;;
61413;SDS011;47279;52.426;10.488;2023-01-01T00:41:04;2.78;;;2.20;;
61413;SDS011;47279;52.426;10.488;2023-01-01T00:43:30;3.35;;;2.38;;
61413;SDS011;47279;52.426;10.488;2023-01-01T00:45:56;2.80;;;2.20;;
61413;SDS011;47279;52.426;10.488;2023-01-01T00:48:23;2.90;;;2.28;;
61413;SDS011;47279;52.426;10.488;2023-01-01T00:50:49;2.20;;;2.00;;
61413;SDS011;47279;52.426;10.488;2023-01-01T00:53:16;2.40;;;2.00;;
61413;SDS011;47279;52.426;10.488;2023-01-01T00:55:42;3.13;;;2.30;;
61413;SDS011;47279;52.426;10.488;2023-01-01T00:58:11;2.38;;;2.03;;
61413;SDS011;47279;52.426;10.488;2023-01-01T01:00:37;3.83;;;2.20;;
61413;SDS011;47279;52.426;10.488;2023-01-01T01:03:03;2.30;;;2.10;;
61413;SDS011;47279;52.426;10.488;2023-01-01T01:05:29;2.03;;;1.83;;
61413;SDS011;47279;52.426;10.488;2023-01-01T01:07:56;3.28;;;2.58;;
61413;SDS011;47279;52.426;10.488;2023-01-01T01:10:22;3.17;;;2.42;;
61413;SDS011;47279;52.426;10.488;2023-01-01T01:12:49;2.67;;;2.10;;
61413;SDS011;47279;52.426;10.488;2023-01-01T01:15:15;2.65;;;1.88;;
61413;SDS011;47279;52.426;10.488;2023-01-01T01:17:41;2.45;;;2.08;;
61413;SDS011;47279;52.426;10.488;2023-01-01T01:20:07;2.72;;;2.15;;
61413;SDS011;47279;52.426;10.488;2023-01-01T01:22:33;2.97;;;2.35;;
61413;SDS011;47279;52.426;10.488;2023-01-01T01:24:59;3.40;;;2.17;;
61413;SDS011;47279;52.426;10.488;2023-01-01T01:27:25;3.45;;;1.98;;
61413;SDS011;47279;52.426;10.488;2023-01-01T01:29:52;2.67;;;2.28;;
61413;SDS011;47279;52.426;10.488;2023-01-01T01:32:18;3.45;;;1.95;;
61413;SDS011;47279;52.426;10.488;2023-01-01T01:34:44;2.45;;;2.10;;
61413;SDS011;47279;52.426;10.488;2023-01-01T01:37:10;2.67;;;2.20;;
61413;SDS011;47279;52.426;10.488;2023-01-01T01:39:36;2.65;;;2.17;;
61413;SDS011;47279;52.426;10.488;2023-01-01T01:42:03;2.85;;;2.10;;
61413;SDS011;47279;52.426;10.488;2023-01-01T01:47:56;2.90;;;1.92;;
61413;SDS011;47279;52.426;10.488;2023-01-01T01:52:32;2.58;;;1.95;;
61413;SDS011;47279;52.426;10.488;2023-01-01T01:54:59;3.30;;;2.10;;
61413;SDS011;47279;52.426;10.488;2023-01-01T01:57:26;3.40;;;2.50;;
61413;SDS011;47279;52.426;10.488;2023-01-01T01:59:52;2.97;;;2.13;;
61413;SDS011;47279;52.426;10.488;2023-01-01T02:02:22;2.20;;;2.00;;
61413;SDS011;47279;52.426;10.488;2023-01-01T02:04:51;2.83;;;2.28;;
61413;SDS011;47279;52.426;10.488;2023-01-01T02:07:17;3.20;;;2.05;;
61413;SDS011;47279;52.426;10.488;2023-01-01T02:09:44;2.67;;;1.85;;
61413;SDS011;47279;52.426;10.488;2023-01-01T02:12:10;3.40;;;1.98;;
61413;SDS011;47279;52.426;10.488;2023-01-01T02:14:36;2.90;;;2.15;;
61413;SDS011;47279;52.426;10.488;2023-01-01T02:17:06;2.08;;;1.88;;
61413;SDS011;47279;52.426;10.488;2023-01-01T02:19:41;2.53;;;1.70;;
61413;SDS011;47279;52.426;10.488;2023-01-01T02:22:25;2.75;;;2.03;;
61413;SDS011;47279;52.426;10.488;2023-01-01T02:30:12;2.55;;;1.83;;
61413;SDS011;47279;52.426;10.488;2023-01-01T02:35:56;3.22;;;1.80;;
61413;SDS011;47279;52.426;10.488;2023-01-01T02:38:36;2.47;;;1.75;;
61413;SDS011;47279;52.426;10.488;2023-01-01T02:41:03;2.50;;;1.90;;
61413;SDS011;47279;52.426;10.488;2023-01-01T02:43:30;2.75;;;2.08;;
61413;SDS011;47279;52.426;10.488;2023-01-01T02:45:56;3.17;;;2.67;;
61413;SDS011;47279;52.426;10.488;2023-01-01T02:53:47;3.33;;;2.08;;
61413;SDS011;47279;52.426;10.488;2023-01-01T02:56:24;3.03;;;2.15;;
61413;SDS011;47279;52.426;10.488;2023-01-01T02:58:52;2.67;;;2.03;;
61413;SDS011;47279;52.426;10.488;2023-01-01T03:04:10;2.35;;;2.15;;
61413;SDS011;47279;52.426;10.488;2023-01-01T03:06:41;2.05;;;1.73;;
61413;SDS011;47279;52.426;10.488;2023-01-01T03:11:55;2.50;;;2.15;;
61413;SDS011;47279;52.426;10.488;2023-01-01T03:19:26;1.92;;;1.60;;
61413;SDS011;47279;52.426;10.488;2023-01-01T03:22:04;1.85;;;1.65;;
61413;SDS011;47279;52.426;10.488;2023-01-01T03:24:35;3.40;;;1.95;;
61413;SDS011;47279;52.426;10.488;2023-01-01T03:27:03;2.13;;;1.80;;
61413;SDS011;47279;52.426;10.488;2023-01-01T03:29:31;2.53;;;1.90;;
61413;SDS011;47279;52.426;10.488;2023-01-01T03:31:58;2.42;;;1.85;;
61413;SDS011;47279;52.426;10.488;2023-01-01T03:34:28;1.85;;;1.67;;
61413;SDS011;47279;52.426;10.488;2023-01-01T03:36:55;2.65;;;1.88;;
61413;SDS011;47279;52.426;10.488;2023-01-01T03:39:24;1.90;;;1.70;;
61413;SDS011;47279;52.426;10.488;2023-01-01T03:41:54;2.28;;;1.80;;
61413;SDS011;47279;52.426;10.488;2023-01-01T03:47:07;2.42;;;2.22;;
61413;SDS011;47279;52.426;10.488;2023-01-01T03:49:33;2.10;;;1.90;;
61413;SDS011;47279;52.426;10.488;2023-01-01T03:57:04;2.05;;;1.85;;
61413;SDS011;47279;52.426;10.488;2023-01-01T03:59:36;2.47;;;1.92;;
61413;SDS011;47279;52.426;10.488;2023-01-01T04:02:04;2.00;;;1.80;;
61413;SDS011;47279;52.426;10.488;2023-01-01T04:04:31;2.45;;;1.67;;
61413;SDS011;47279;52.426;10.488;2023-01-01T04:06:59;1.98;;;1.77;;
61413;SDS011;47279;52.426;10.488;2023-01-01T04:09:27;2.10;;;1.90;;
61413;SDS011;47279;52.426;10.488;2023-01-01T04:11:54;1.95;;;1.73;;
61413;SDS011;47279;52.426;10.488;2023-01-01T04:14:29;2.08;;;1.77;;
61413;SDS011;47279;52.426;10.488;2023-01-01T04:16:56;2.10;;;1.90;;
61413;SDS011;47279;52.426;10.488;2023-01-01T04:19:22;2.55;;;1.95;;
61413;SDS011;47279;52.426;10.488;2023-01-01T04:21:48;2.08;;;1.80;;
61413;SDS011;47279;52.426;10.488;2023-01-01T04:24:14;2.30;;;1.80;;
61413;SDS011;47279;52.426;10.488;2023-01-01T04:26:40;2.03;;;1.65;;
61413;SDS011;47279;52.426;10.488;2023-01-01T04:29:06;3.65;;;1.83;;
61413;SDS011;47279;52.426;10.488;2023-01-01T04:31:33;2.45;;;1.80;;
61413;SDS011;47279;52.426;10.488;2023-01-01T04:33:59;1.90;;;1.70;;
61413;SDS011;47279;52.426;10.488;2023-01-01T04:36:25;3.20;;;1.85;;
61413;SDS011;47279;52.426;10.488;2023-01-01T04:38:51;2.00;;;1.70;;
61413;SDS011;47279;52.426;10.488;2023-01-01T04:41:17;1.83;;;1.70;;
61413;SDS011;47279;52.426;10.488;2023-01-01T04:43:45;1.83;;;1.70;;
61413;SDS011;47279;52.426;10.488;2023-01-01T04:46:14;2.72;;;1.80;;
61413;SDS011;47279;52.426;10.488;2023-01-01T04:48:40;1.67;;;1.58;;
61413;SDS011;47279;52.426;10.488;2023-01-01T04:51:06;2.10;;;1.90;;
61413;SDS011;47279;52.426;10.488;2023-01-01T04:53:33;2.38;;;2.00;;
61413;SDS011;47279;52.426;10.488;2023-01-01T04:56:06;2.15;;;1.77;;
61413;SDS011;47279;52.426;10.488;2023-01-01T04:58:33;1.92;;;1.80;;
61413;SDS011;47279;52.426;10.488;2023-01-01T05:00:59;2.33;;;1.80;;
61413;SDS011;47279;52.426;10.488;2023-01-01T05:03:26;2.17;;;1.70;;
61413;SDS011;47279;52.426;10.488;2023-01-01T05:05:59;1.73;;;1.58;;
61413;SDS011;47279;52.426;10.488;2023-01-01T05:08:26;1.98;;;1.77;;
61413;SDS011;47279;52.426;10.488;2023-01-01T05:10:52;2.13;;;1.70;;
61413;SDS011;47279;52.426;10.488;2023-01-01T05:13:18;1.95;;;1.55;;
61413;SDS011;47279;52.426;10.488;2023-01-01T05:15:44;2.22;;;1.70;;
61413;SDS011;47279;52.426;10.488;2023-01-01T05:18:10;2.97;;;1.70;;
61413;SDS011;47279;52.426;10.488;2023-01-01T05:20:36;2.22;;;1.80;;
61413;SDS011;47279;52.426;10.488;2023-01-01T05:23:01;3.15;;;1.88;;
61413;SDS011;47279;52.426;10.488;2023-01-01T05:25:27;1.60;;;1.50;;
61413;SDS011;47279;52.426;10.488;2023-01-01T05:27:53;2.35;;;1.92;;
61413;SDS011;47279;52.426;10.488;2023-01-01T05:30:19;2.15;;;1.58;;
61413;SDS011;47279;52.426;10.488;2023-01-01T05:32:45;1.65;;;1.52;;
61413;SDS011;47279;52.426;10.488;2023-01-01T05:35:11;1.70;;;1.60;;
61413;SDS011;47279;52.426;10.488;2023-01-01T05:37:37;1.88;;;1.70;;
61413;SDS011;47279;52.426;10.488;2023-01-01T05:40:03;2.40;;;1.80;;
61413;SDS011;47279;52.426;10.488;2023-01-01T05:42:29;1.70;;;1.58;;
61413;SDS011;47279;52.426;10.488;2023-01-01T05:44:55;2.00;;;1.80;;
61413;SDS011;47279;52.426;10.488;2023-01-01T05:47:21;1.95;;;1.70;;
61413;SDS011;47279;52.426;10.488;2023-01-01T05:49:47;2.08;;;1.58;;
61413;SDS011;47279;52.426;10.488;2023-01-01T05:52:13;1.42;;;1.30;;
61413;SDS011;47279;52.426;10.488;2023-01-01T05:54:39;1.80;;;1.70;;
61413;SDS011;47279;52.426;10.488;2023-01-01T05:57:05;1.98;;;1.77;;
61413;SDS011;47279;52.426;10.488;2023-01-01T05:59:31;1.98;;;1.55;;
61413;SDS011;47279;52.426;10.488;2023-01-01T06:01:57;1.63;;;1.50;;
61413;SDS011;47279;52.426;10.488;2023-01-01T06:04:23;2.08;;;1.83;;
61413;SDS011;47279;52.426;10.488;2023-01-01T06:06:49;1.95;;;1.77;;
61413;SDS011;47279;52.426;10.488;2023-01-01T06:09:15;2.00;;;1.80;;
61413;SDS011;47279;52.426;10.488;2023-01-01T06:11:41;2.00;;;1.70;;
61413;SDS011;47279;52.426;10.488;2023-01-01T06:14:07;2.25;;;1.50;;
61413;SDS011;47279;52.426;10.488;2023-01-01T06:16:33;2.38;;;1.90;;
61413;SDS011;47279;52.426;10.488;2023-01-01T06:18:59;2.53;;;1.70;;
61413;SDS011;47279;52.426;10.488;2023-01-01T06:21:25;1.92;;;1.73;;
61413;SDS011;47279;52.426;10.488;2023-01-01T06:23:51;2.58;;;1.85;;
61413;SDS011;47279;52.426;10.488;2023-01-01T06:26:21;1.90;;;1.70;;
61413;SDS011;47279;52.426;10.488;2023-01-01T06:28:47;2.05;;;1.70;;
61413;SDS011;47279;52.426;10.488;2023-01-01T06:31:14;1.88;;;1.65;;
61413;SDS011;47279;52.426;10.488;2023-01-01T06:33:40;2.00;;;1.60;;
61413;SDS011;47279;52.426;10.488;2023-01-01T06:36:08;2.10;;;1.90;;
61413;SDS011;47279;52.426;10.488;2023-01-01T06:38:35;1.98;;;1.63;;
61413;SDS011;47279;52.426;10.488;2023-01-01T06:41:02;1.98;;;1.85;;
61413;SDS011;47279;52.426;10.488;2023-01-01T06:43:29;2.25;;;1.60;;
61413;SDS011;47279;52.426;10.488;2023-01-01T06:45:59;1.77;;;1.67;;
61413;SDS011;47279;52.426;10.488;2023-01-01T06:48:25;1.98;;;1.80;;
61413;SDS011;47279;52.426;10.488;2023-01-01T06:50:52;2.05;;;1.85;;
61413;SDS011;47279;52.426;10.488;2023-01-01T06:53:18;2.20;;;1.60;;
61413;SDS011;47279;52.426;10.488;2023-01-01T06:55:47;1.67;;;1.50;;
61413;SDS011;47279;52.426;10.488;2023-01-01T06:58:13;1.65;;;1.55;;
61413;SDS011;47279;52.426;10.488;2023-01-01T07:00:39;2.22;;;1.80;;
61413;SDS011;47279;52.426;10.488;2023-01-01T07:03:05;2.85;;;1.95;;
61413;SDS011;47279;52.426;10.488;2023-01-01T07:05:31;2.03;;;1.70;;
61413;SDS011;47279;52.426;10.488;2023-01-01T07:07:57;2.22;;;1.65;;
61413;SDS011;47279;52.426;10.488;2023-01-01T07:10:23;2.28;;;1.58;;
61413;SDS011;47279;52.426;10.488;2023-01-01T07:12:49;1.90;;;1.67;;
61413;SDS011;47279;52.426;10.488;2023-01-01T07:15:14;1.40;;;1.30;;
61413;SDS011;47279;52.426;10.488;2023-01-01T07:17:40;2.03;;;1.60;;
61413;SDS011;47279;52.426;10.488;2023-01-01T07:20:06;2.42;;;1.77;;
61413;SDS011;47279;52.426;10.488;2023-01-01T07:22:33;1.63;;;1.38;;
61413;SDS011;47279;52.426;10.488;2023-01-01T07:24:59;1.67;;;1.58;;
61413;SDS011;47279;52.426;10.488;2023-01-01T07:27:25;2.78;;;1.60;;
61413;SDS011;47279;52.426;10.488;2023-01-01T07:29:51;1.58;;;1.48;;
61413;SDS011;47279;52.426;10.488;2023-01-01T07:32:17;2.40;;;1.75;;
61413;SDS011;47279;52.426;10.488;2023-01-01T07:34:42;1.85;;;1.60;;
61413;SDS011;47279;52.426;10.488;2023-01-01T07:37:08;2.25;;;1.80;;
61413;SDS011;47279;52.426;10.488;2023-01-01T07:39:34;1.75;;;1.65;;
61413;SDS011;47279;52.426;10.488;2023-01-01T07:42:00;2.47;;;1.70;;
61413;SDS011;47279;52.426;10.488;2023-01-01T07:44:26;1.83;;;1.60;;
61413;SDS011;47279;52.426;10.488;2023-01-01T07:47:02;2.33;;;1.60;;
61413;SDS011;47279;52.426;10.488;2023-01-01T07:49:28;2.00;;;1.80;;
61413;SDS011;47279;52.426;10.488;2023-01-01T07:51:54;2.55;;;1.60;;
61413;SDS011;47279;52.426;10.488;2023-01-01T07:54:20;2.50;;;1.77;;
61413;SDS011;47279;52.426;10.488;2023-01-01T07:56:46;2.17;;;1.70;;
61413;SDS011;47279;52.426;10.488;2023-01-01T07:59:12;2.08;;;1.70;;
61413;SDS011;47279;52.426;10.488;2023-01-01T08:01:37;2.53;;;1.60;;
61413;SDS011;47279;52.426;10.488;2023-01-01T08:04:04;2.08;;;1.80;;
61413;SDS011;47279;52.426;10.488;2023-01-01T08:06:30;2.20;;;2.00;;
61413;SDS011;47279;52.426;10.488;2023-01-01T08:08:56;2.78;;;1.70;;
61413;SDS011;47279;52.426;10.488;2023-01-01T08:11:21;1.85;;;1.70;;
61413;SDS011;47279;52.426;10.488;2023-01-01T08:13:47;1.65;;;1.40;;
61413;SDS011;47279;52.426;10.488;2023-01-01T08:16:13;2.13;;;1.73;;
61413;SDS011;47279;52.426;10.488;2023-01-01T08:18:39;2.58;;;1.65;;
61413;SDS011;47279;52.426;10.488;2023-01-01T08:21:05;2.20;;;1.73;;
61413;SDS011;47279;52.426;10.488;2023-01-01T08:23:31;1.67;;;1.50;;
61413;SDS011;47279;52.426;10.488;2023-01-01T08:25:58;1.67;;;1.58;;
61413;SDS011;47279;52.426;10.488;2023-01-01T08:28:25;2.20;;;1.90;;
61413;SDS011;47279;52.426;10.488;2023-01-01T08:30:51;2.03;;;1.80;;
61413;SDS011;47279;52.426;10.488;2023-01-01T08:33:17;1.73;;;1.60;;
61413;SDS011;47279;52.426;10.488;2023-01-01T08:35:43;1.83;;;1.63;;
61413;SDS011;47279;52.426;10.488;2023-01-01T08:38:12;2.05;;;1.80;;
61413;SDS011;47279;52.426;10.488;2023-01-01T08:40:38;2.53;;;2.00;;
61413;SDS011;47279;52.426;10.488;2023-01-01T08:43:04;1.70;;;1.55;;
61413;SDS011;47279;52.426;10.488;2023-01-01T08:45:29;2.85;;;1.70;;
61413;SDS011;47279;52.426;10.488;2023-01-01T08:47:55;1.85;;;1.67;;
61413;SDS011;47279;52.426;10.488;2023-01-01T08:50:21;2.30;;;1.63;;
61413;SDS011;47279;52.426;10.488;2023-01-01T08:52:47;1.75;;;1.63;;
61413;SDS011;47279;52.426;10.488;2023-01-01T08:55:13;2.03;;;1.90;;
61413;SDS011;47279;52.426;10.488;2023-01-01T08:57:39;1.73;;;1.63;;
61413;SDS011;47279;52.426;10.488;2023-01-01T09:00:05;2.13;;;1.67;;
61413;SDS011;47279;52.426;10.488;2023-01-01T09:02:33;2.00;;;1.80;;
61413;SDS011;47279;52.426;10.488;2023-01-01T09:04:59;2.88;;;1.77;;
61413;SDS011;47279;52.426;10.488;2023-01-01T09:07:25;1.85;;;1.63;;
61413;SDS011;47279;52.426;10.488;2023-01-01T09:09:51;1.75;;;1.50;;
61413;SDS011;47279;52.426;10.488;2023-01-01T09:12:17;2.13;;;1.75;;
61413;SDS011;47279;52.426;10.488;2023-01-01T09:14:45;2.40;;;2.00;;
61413;SDS011;47279;52.426;10.488;2023-01-01T09:17:11;3.13;;;1.65;;
61413;SDS011;47279;52.426;10.488;2023-01-01T09:19:37;1.60;;;1.50;;
61413;SDS011;47279;52.426;10.488;2023-01-01T09:22:03;2.10;;;1.80;;
61413;SDS011;47279;52.426;10.488;2023-01-01T09:24:33;2.15;;;1.70;;
61413;SDS011;47279;52.426;10.488;2023-01-01T09:26:58;2.08;;;1.88;;
61413;SDS011;47279;52.426;10.488;2023-01-01T09:29:24;1.70;;;1.60;;
61413;SDS011;47279;52.426;10.488;2023-01-01T09:31:50;2.22;;;1.80;;
61413;SDS011;47279;52.426;10.488;2023-01-01T09:34:16;1.90;;;1.70;;
61413;SDS011;47279;52.426;10.488;2023-01-01T09:36:42;1.55;;;1.45;;
61413;SDS011;47279;52.426;10.488;2023-01-01T09:39:10;2.33;;;1.63;;
61413;SDS011;47279;52.426;10.488;2023-01-01T09:41:46;1.73;;;1.55;;
61413;SDS011;47279;52.426;10.488;2023-01-01T09:44:20;1.90;;;1.70;;
61413;SDS011;47279;52.426;10.488;2023-01-01T09:46:50;1.67;;;1.58;;
61413;SDS011;47279;52.426;10.488;2023-01-01T09:49:17;1.65;;;1.50;;
61413;SDS011;47279;52.426;10.488;2023-01-01T09:51:48;1.77;;;1.63;;
61413;SDS011;47279;52.426;10.488;2023-01-01T09:54:24;1.92;;;1.55;;
61413;SDS011;47279;52.426;10.488;2023-01-01T09:56:54;2.00;;;1.80;;
61413;SDS011;47279;52.426;10.488;2023-01-01T09:59:20;1.58;;;1.42;;
61413;SDS011;47279;52.426;10.488;2023-01-01T10:04:18;1.83;;;1.63;;
61413;SDS011;47279;52.426;10.488;2023-01-01T10:06:55;2.15;;;1.52;;
61413;SDS011;47279;52.426;10.488;2023-01-01T10:09:23;1.65;;;1.40;;
61413;SDS011;47279;52.426;10.488;2023-01-01T10:14:24;1.90;;;1.67;;
61413;SDS011;47279;52.426;10.488;2023-01-01T10:16:53;1.73;;;1.55;;
61413;SDS011;47279;52.426;10.488;2023-01-01T10:19:30;2.63;;;1.70;;
61413;SDS011;47279;52.426;10.488;2023-01-01T10:21:59;1.63;;;1.50;;
61413;SDS011;47279;52.426;10.488;2023-01-01T10:24:37;1.73;;;1.50;;
61413;SDS011;47279;52.426;10.488;2023-01-01T10:27:08;2.42;;;1.38;;
61413;SDS011;47279;52.426;10.488;2023-01-01T10:32:17;1.70;;;1.60;;
61413;SDS011;47279;52.426;10.488;2023-01-01T10:34:44;2.10;;;1.80;;
61413;SDS011;47279;52.426;10.488;2023-01-01T10:37:10;1.60;;;1.40;;
61413;SDS011;47279;52.426;10.488;2023-01-01T10:39:37;1.85;;;1.50;;
61413;SDS011;47279;52.426;10.488;2023-01-01T10:42:03;1.63;;;1.52;;
61413;SDS011;47279;52.426;10.488;2023-01-01T10:44:30;2.28;;;1.63;;
61413;SDS011;47279;52.426;10.488;2023-01-01T10:46:56;1.58;;;1.40;;
61413;SDS011;47279;52.426;10.488;2023-01-01T10:49:23;1.65;;;1.40;;
61413;SDS011;47279;52.426;10.488;2023-01-01T10:51:49;2.22;;;1.77;;
61413;SDS011;47279;52.426;10.488;2023-01-01T10:54:32;2.35;;;1.65;;
61413;SDS011;47279;52.426;10.488;2023-01-01T10:57:15;2.30;;;1.60;;
61413;SDS011;47279;52.426;10.488;2023-01-01T10:59:42;27.27;;;3.42;;
61413;SDS011;47279;52.426;10.488;2023-01-01T11:04:44;7.22;;;1.90;;
61413;SDS011;47279;52.426;10.488;2023-01-01T11:07:13;7.03;;;2.10;;
61413;SDS011;47279;52.426;10.488;2023-01-01T11:09:42;5.10;;;2.17;;
61413;SDS011;47279;52.426;10.488;2023-01-01T11:12:16;5.60;;;2.10;;
61413;SDS011;47279;52.426;10.488;2023-01-01T11:14:47;4.35;;;1.80;;
61413;SDS011;47279;52.426;10.488;2023-01-01T11:17:19;8.43;;;2.15;;
61413;SDS011;47279;52.426;10.488;2023-01-01T11:19:46;6.03;;;2.35;;
61413;SDS011;47279;52.426;10.488;2023-01-01T11:24:59;4.43;;;1.77;;
61413;SDS011;47279;52.426;10.488;2023-01-01T11:27:25;6.15;;;2.03;;
61413;SDS011;47279;52.426;10.488;2023-01-01T11:29:51;4.13;;;2.05;;
61413;SDS011;47279;52.426;10.488;2023-01-01T11:32:33;5.90;;;2.00;;
61413;SDS011;47279;52.426;10.488;2023-01-01T11:35:03;19.95;;;4.18;;
61413;SDS011;47279;52.426;10.488;2023-01-01T11:37:30;50.67;;;12.23;;
61413;SDS011;47279;52.426;10.488;2023-01-01T11:39:58;60.47;;;11.45;;
61413;SDS011;47279;52.426;10.488;2023-01-01T11:42:34;56.65;;;14.10;;
61413;SDS011;47279;52.426;10.488;2023-01-01T11:49:54;48.20;;;11.13;;
61413;SDS011;47279;52.426;10.488;2023-01-01T11:55:00;61.00;;;14.13;;
61413;SDS011;47279;52.426;10.488;2023-01-01T11:57:28;46.05;;;13.73;;
61413;SDS011;47279;52.426;10.488;2023-01-01T12:00:00;53.92;;;11.60;;
61413;SDS011;47279;52.426;10.488;2023-01-01T12:02:37;73.35;;;27.95;;
61413;SDS011;47279;52.426;10.488;2023-01-01T12:05:33;67.50;;;28.30;;
61413;SDS011;47279;52.426;10.488;2023-01-01T12:07:51;58.22;;;18.65;;
61413;SDS011;47279;52.426;10.488;2023-01-01T12:10:19;39.03;;;14.93;;
61413;SDS011;47279;52.426;10.488;2023-01-01T12:12:50;53.03;;;18.08;;
61413;SDS011;47279;52.426;10.488;2023-01-01T12:15:23;52.88;;;19.25;;
61413;SDS011;47279;52.426;10.488;2023-01-01T12:20:31;29.65;;;14.30;;
61413;SDS011;47279;52.426;10.488;2023-01-01T12:22:58;31.48;;;14.57;;
61413;SDS011;47279;52.426;10.488;2023-01-01T12:25:26;37.58;;;17.35;;
61413;SDS011;47279;52.426;10.488;2023-01-01T12:28:14;36.58;;;15.85;;
61413;SDS011;47279;52.426;10.488;2023-01-01T12:36:08;27.20;;;13.65;;
61413;SDS011;47279;52.426;10.488;2023-01-01T12:38:44;29.05;;;16.00;;
61413;SDS011;47279;52.426;10.488;2023-01-01T12:43:42;21.08;;;12.25;;
61413;SDS011;47279;52.426;10.488;2023-01-01T12:59:22;21.77;;;11.82;;
61413;SDS011;47279;52.426;10.488;2023-01-01T13:01:50;20.80;;;12.50;;
61413;SDS011;47279;52.426;10.488;2023-01-01T13:04:20;23.08;;;12.85;;
61413;SDS011;47279;52.426;10.488;2023-01-01T13:07:02;23.17;;;11.30;;
61413;SDS011;47279;52.426;10.488;2023-01-01T13:09:34;21.77;;;11.15;;
61413;SDS011;47279;52.426;10.488;2023-01-01T13:12:03;29.92;;;11.75;;
61413;SDS011;47279;52.426;10.488;2023-01-01T13:14:36;20.47;;;12.43;;
61413;SDS011;47279;52.426;10.488;2023-01-01T13:17:02;21.00;;;11.43;;
61413;SDS011;47279;52.426;10.488;2023-01-01T13:19:32;20.20;;;10.90;;
61413;SDS011;47279;52.426;10.488;2023-01-01T13:24:24;16.27;;;10.63;;
61413;SDS011;47279;52.426;10.488;2023-01-01T13:26:51;18.05;;;10.15;;
61413;SDS011;47279;52.426;10.488;2023-01-01T13:31:58;15.43;;;10.32;;
61413;SDS011;47279;52.426;10.488;2023-01-01T13:45:02;15.50;;;10.60;;
61413;SDS011;47279;52.426;10.488;2023-01-01T13:47:34;12.40;;;9.52;;
61413;SDS011;47279;52.426;10.488;2023-01-01T13:50:08;13.70;;;9.60;;
61413;SDS011;47279;52.426;10.488;2023-01-01T13:55:19;17.38;;;9.00;;
61413;SDS011;47279;52.426;10.488;2023-01-01T13:58:00;12.80;;;9.13;;
61413;SDS011;47279;52.426;10.488;2023-01-01T14:02:57;12.25;;;9.10;;
61413;SDS011;47279;52.426;10.488;2023-01-01T14:07:53;46.20;;;12.43;;
61413;SDS011;47279;52.426;10.488;2023-01-01T14:10:22;42.97;;;12.35;;
61413;SDS011;47279;52.426;10.488;2023-01-01T14:12:49;16.80;;;10.65;;
61413;SDS011;47279;52.426;10.488;2023-01-01T14:15:16;21.00;;;11.73;;
61413;SDS011;47279;52.426;10.488;2023-01-01T14:17:48;27.85;;;10.52;;
61413;SDS011;47279;52.426;10.488;2023-01-01T14:20:15;24.08;;;11.25;;
61413;SDS011;47279;52.426;10.488;2023-01-01T14:22:43;25.85;;;10.63;;
61413;SDS011;47279;52.426;10.488;2023-01-01T14:25:13;19.15;;;9.48;;
61413;SDS011;47279;52.426;10.488;2023-01-01T14:27:39;16.23;;;9.88;;
61413;SDS011;47279;52.426;10.488;2023-01-01T14:30:13;12.95;;;9.30;;
61413;SDS011;47279;52.426;10.488;2023-01-01T14:32:39;18.95;;;9.63;;
61413;SDS011;47279;52.426;10.488;2023-01-01T14:35:11;17.17;;;9.43;;
61413;SDS011;47279;52.426;10.488;2023-01-01T14:37:37;15.38;;;9.55;;
61413;SDS011;47279;52.426;10.488;2023-01-01T14:40:10;13.40;;;9.27;;
61413;SDS011;47279;52.426;10.488;2023-01-01T14:42:39;14.60;;;8.98;;
61413;SDS011;47279;52.426;10.488;2023-01-01T14:45:05;15.05;;;9.88;;
61413;SDS011;47279;52.426;10.488;2023-01-01T14:47:38;15.77;;;9.65;;
61413;SDS011;47279;52.426;10.488;2023-01-01T14:50:11;16.27;;;9.32;;
61413;SDS011;47279;52.426;10.488;2023-01-01T14:52:39;15.77;;;9.32;;
61413;SDS011;47279;52.426;10.488;2023-01-01T14:55:05;11.98;;;8.90;;
61413;SDS011;47279;52.426;10.488;2023-01-01T14:57:33;12.95;;;9.65;;
61413;SDS011;47279;52.426;10.488;2023-01-01T15:00:00;14.55;;;9.18;;
61413;SDS011;47279;52.426;10.488;2023-01-01T15:02:27;11.25;;;8.93;;
61413;SDS011;47279;52.426;10.488;2023-01-01T15:04:54;12.30;;;9.27;;
61413;SDS011;47279;52.426;10.488;2023-01-01T15:07:22;14.18;;;9.07;;
61413;SDS011;47279;52.426;10.488;2023-01-01T15:09:48;12.00;;;9.10;;
61413;SDS011;47279;52.426;10.488;2023-01-01T15:12:15;12.40;;;9.45;;
61413;SDS011;47279;52.426;10.488;2023-01-01T15:14:45;14.77;;;9.38;;
61413;SDS011;47279;52.426;10.488;2023-01-01T15:17:12;13.38;;;9.65;;
61413;SDS011;47279;52.426;10.488;2023-01-01T15:19:40;12.82;;;8.85;;
61413;SDS011;47279;52.426;10.488;2023-01-01T15:22:09;11.85;;;8.80;;
61413;SDS011;47279;52.426;10.488;2023-01-01T15:24:36;11.10;;;9.02;;
61413;SDS011;47279;52.426;10.488;2023-01-01T15:27:03;9.82;;;8.85;;
61413;SDS011;47279;52.426;10.488;2023-01-01T15:29:31;9.63;;;8.60;;
61413;SDS011;47279;52.426;10.488;2023-01-01T15:31:59;10.18;;;8.73;;
61413;SDS011;47279;52.426;10.488;2023-01-01T15:34:28;11.48;;;8.85;;
61413;SDS011;47279;52.426;10.488;2023-01-01T15:36:55;9.18;;;7.90;;
61413;SDS011;47279;52.426;10.488;2023-01-01T15:39:21;11.30;;;8.43;;
61413;SDS011;47279;52.426;10.488;2023-01-01T15:41:48;9.85;;;8.32;;
61413;SDS011;47279;52.426;10.488;2023-01-01T15:44:27;11.63;;;9.10;;
61413;SDS011;47279;52.426;10.488;2023-01-01T15:47:02;10.65;;;8.55;;
61413;SDS011;47279;52.426;10.488;2023-01-01T15:49:29;10.27;;;8.23;;
61413;SDS011;47279;52.426;10.488;2023-01-01T15:51:55;9.25;;;8.25;;
61413;SDS011;47279;52.426;10.488;2023-01-01T15:54:22;9.38;;;8.40;;
61413;SDS011;47279;52.426;10.488;2023-01-01T15:56:49;9.82;;;8.88;;
61413;SDS011;47279;52.426;10.488;2023-01-01T15:59:21;10.10;;;8.88;;
61413;SDS011;47279;52.426;10.488;2023-01-01T16:01:47;10.93;;;9.00;;
61413;SDS011;47279;52.426;10.488;2023-01-01T16:04:23;9.10;;;8.20;;
61413;SDS011;47279;52.426;10.488;2023-01-01T16:06:51;9.20;;;8.40;;
61413;SDS011;47279;52.426;10.488;2023-01-01T16:09:18;9.20;;;8.20;;
61413;SDS011;47279;52.426;10.488;2023-01-01T16:11:44;9.35;;;8.20;;
61413;SDS011;47279;52.426;10.488;2023-01-01T16:14:11;16.38;;;9.73;;
61413;SDS011;47279;52.426;10.488;2023-01-01T16:16:37;8.90;;;8.10;;
61413;SDS011;47279;52.426;10.488;2023-01-01T16:19:03;10.80;;;8.88;;
61413;SDS011;47279;52.426;10.488;2023-01-01T16:21:31;10.48;;;9.40;;